createdAt,value
2023-04-02T00:02:23.888Z,97607.64
2023-04-02T00:08:18.694Z,97607.92
2023-04-02T00:14:24.368Z,97610.61
2023-04-02T00:21:09.668Z,97603.34
2023-04-02T00:27:14.088Z,97606.20
2023-04-02T00:33:36.060Z,97611.94
2023-04-02T00:40:03.627Z,97620.55
2023-04-02T00:45:30.589Z,97622.17
2023-04-02T00:50:46.914Z,97624.14
2023-04-02T00:56:14.947Z,97623.22
2023-04-02T01:02:24.083Z,97622.96
2023-04-02T01:09:19.900Z,97629.48
2023-04-02T01:16:04.556Z,97628.77
2023-04-02T01:21:35.237Z,97628.16
2023-04-02T01:27:40.119Z,97630.39
2023-04-02T01:33:47.544Z,97630.54
2023-04-02T01:40:02.010Z,97641.36
2023-04-02T01:45:31.338Z,97644.64
2023-04-02T01:51:48.729Z,97646.90
2023-04-02T01:58:13.580Z,97648.56
2023-04-02T02:04:28.816Z,97645.24
2023-04-02T02:11:19.203Z,97652.71
2023-04-02T02:17:46.299Z,97657.75
2023-04-02T02:24:04.767Z,97658.02
2023-04-02T02:29:36.294Z,97660.62
2023-04-02T02:36:01.438Z,97661.94
2023-04-02T02:42:10.245Z,97668.89
2023-04-02T02:47:54.777Z,97669.77
2023-04-02T02:53:26.394Z,97674.52
2023-04-02T02:59:28.656Z,97672.73
2023-04-02T03:09:52.698Z,97683.09
2023-04-02T03:15:58.440Z,97690.29
2023-04-02T03:22:47.701Z,97690.58
2023-04-02T03:28:54.441Z,97695.38
2023-04-02T03:35:50.293Z,97702.27
2023-04-02T03:42:58.786Z,97708.12
2023-04-02T03:50:05.286Z,97712.34
2023-04-02T03:56:40.915Z,97717.50
2023-04-02T04:03:47.175Z,97731.88
2023-04-02T04:10:49.699Z,97743.53
2023-04-02T04:17:46.835Z,97746.30
2023-04-02T04:24:55.180Z,97753.02
2023-04-02T04:32:11.732Z,97759.86
2023-04-02T04:39:19.168Z,97775.01
2023-04-02T04:46:26.207Z,97780.83
2023-04-02T04:53:36.858Z,97790.71
2023-04-02T05:00:45.241Z,97797.90
2023-04-02T05:08:05.319Z,97814.06
2023-04-02T05:15:18.609Z,97827.52
2023-04-02T05:22:32.722Z,97841.36
2023-04-02T05:29:12.708Z,97863.05
2023-04-02T05:35:41.781Z,97870.10
2023-04-02T05:42:36.911Z,97882.98
2023-04-02T05:49:38.546Z,97891.77
2023-04-02T05:56:50.506Z,97905.01
2023-04-02T06:03:18.946Z,97909.65
2023-04-02T06:09:51.115Z,97923.30
2023-04-02T06:16:58.558Z,97944.80
2023-04-02T06:23:30.542Z,97955.09
2023-04-02T06:30:28.688Z,97976.83
2023-04-02T06:37:38.010Z,97987.30
2023-04-02T06:43:50.844Z,98001.69
2023-04-02T06:50:46.525Z,98015.39
2023-04-02T06:57:36.838Z,98032.02
2023-04-02T07:03:14.758Z,98042.15
2023-04-02T07:09:08.629Z,98057.64
2023-04-02T07:16:08.511Z,98072.70
2023-04-02T07:22:25.294Z,98084.46
2023-04-02T07:27:52.864Z,98102.06
2023-04-02T07:34:27.472Z,98115.30
2023-04-02T07:41:04.248Z,98135.14
2023-04-02T07:47:13.201Z,98148.08
2023-04-02T07:53:27.785Z,98158.61
2023-04-02T07:59:11.848Z,98163.85
2023-04-02T08:05:38.623Z,98173.61
2023-04-02T08:11:02.505Z,98186.99
2023-04-02T08:17:43.371Z,98193.04
2023-04-02T08:23:58.020Z,98206.27
2023-04-02T08:30:10.298Z,98217.21
2023-04-02T08:35:20.034Z,98229.36
2023-04-02T08:41:37.784Z,98242.44
2023-04-02T08:47:23.270Z,98243.91
2023-04-02T08:53:26.132Z,98254.54
2023-04-02T08:59:37.115Z,98267.36
2023-04-02T09:06:18.912Z,98274.52
2023-04-02T09:12:47.008Z,98281.40
2023-04-02T09:19:20.211Z,98287.42
2023-04-02T09:26:13.555Z,98298.95
2023-04-02T09:33:06.723Z,98307.09
2023-04-02T09:39:05.922Z,98313.95
2023-04-02T09:45:22.473Z,98317.62
2023-04-02T09:52:10.467Z,98329.36
2023-04-02T09:57:37.713Z,98342.61
2023-04-02T10:17:52.923Z,98368.16
2023-04-02T10:24:05.484Z,98375.09
2023-04-02T10:30:12.155Z,98386.03
2023-04-02T10:36:31.262Z,98396.06
2023-04-02T10:42:57.143Z,98396.63
2023-04-02T10:49:08.760Z,98403.67
2023-04-02T10:55:33.871Z,98416.59
2023-04-02T11:02:35.114Z,98427.77
2023-04-02T11:08:47.392Z,98436.05
2023-04-02T11:14:47.662Z,98437.41
2023-04-02T11:20:08.276Z,98449.14
2023-04-02T11:25:29.360Z,98459.22
2023-04-02T11:31:15.408Z,98461.23
2023-04-02T11:37:26.815Z,98469.05
2023-04-02T11:42:50.506Z,98470.90
2023-04-02T11:48:54.611Z,98482.09
2023-04-02T11:54:57.674Z,98480.77
2023-04-02T12:01:22.232Z,98486.02
2023-04-02T12:06:55.326Z,98493.67
2023-04-02T12:12:15.891Z,98497.88
2023-04-02T12:17:44.335Z,98500.93
2023-04-02T12:23:07.817Z,98512.23
2023-04-02T12:28:41.969Z,98511.53
2023-04-02T12:34:04.053Z,98516.77
2023-04-02T12:39:20.817Z,98525.02
2023-04-02T12:44:30.489Z,98533.20
2023-04-02T12:49:53.800Z,98542.17
2023-04-02T12:56:32.220Z,98544.23
2023-04-02T13:01:40.287Z,98546.10
2023-04-02T13:06:58.853Z,98553.08
2023-04-02T13:12:04.067Z,98560.53
2023-04-02T13:18:00.665Z,98564.48
2023-04-02T13:23:39.088Z,98569.06
2023-04-02T13:29:39.660Z,98569.25
2023-04-02T13:35:32.843Z,98578.20
2023-04-02T13:40:40.786Z,98585.00
2023-04-02T13:45:57.227Z,98590.06
2023-04-02T13:51:01.862Z,98599.46
2023-04-02T13:56:33.737Z,98604.80
2023-04-02T14:01:56.778Z,98604.06
2023-04-02T14:07:27.252Z,98609.90
2023-04-02T14:13:27.754Z,98618.83
2023-04-02T14:19:26.456Z,98632.85
2023-04-02T14:25:18.172Z,98638.35
2023-04-02T14:31:23.734Z,98642.38
2023-04-02T14:37:09.501Z,98651.52
2023-04-02T14:42:55.638Z,98657.94
2023-04-02T14:49:10.455Z,98663.11
2023-04-02T14:55:36.809Z,98675.43
2023-04-02T15:01:47.175Z,98674.86
2023-04-02T15:07:24.486Z,98682.02
2023-04-02T15:13:00.146Z,98683.90
2023-04-02T15:20:00.193Z,98693.31
2023-04-02T15:26:39.349Z,98699.48
2023-04-02T15:33:40.042Z,98713.45
2023-04-02T15:40:27.940Z,98722.48
2023-04-02T15:47:09.824Z,98730.46
2023-04-02T15:53:12.110Z,98734.38
2023-04-02T15:59:19.155Z,98741.38
2023-04-02T16:05:14.193Z,98755.05
2023-04-02T16:10:41.932Z,98760.86
2023-04-02T16:16:32.452Z,98764.96
2023-04-02T16:22:53.375Z,98775.02
2023-04-02T16:28:50.907Z,98780.98
2023-04-02T16:34:41.837Z,98788.64
2023-04-02T16:40:57.137Z,98790.86
2023-04-02T16:47:15.195Z,98797.48
2023-04-02T16:53:07.456Z,98799.70
2023-04-02T16:59:07.781Z,98804.99
2023-04-02T17:05:39.363Z,98810.96
2023-04-02T17:11:17.662Z,98820.48
2023-04-02T17:16:57.542Z,98828.30
2023-04-02T17:24:04.305Z,98832.72
2023-04-02T17:30:56.114Z,98843.06
2023-04-02T17:37:45.919Z,98845.98
2023-04-02T17:44:28.022Z,98851.94
2023-04-02T17:50:27.935Z,98859.59
2023-04-02T17:56:34.348Z,98873.50
2023-04-02T18:02:59.455Z,98879.13
2023-04-02T18:08:59.697Z,98881.66
2023-04-02T18:15:46.696Z,98888.96
2023-04-02T18:22:13.019Z,98893.21
2023-04-02T18:27:57.299Z,98903.91
2023-04-02T18:33:55.990Z,98907.48
2023-04-02T18:40:23.879Z,98913.95
2023-04-02T18:46:04.719Z,98921.06
2023-04-02T18:51:38.080Z,98923.27
2023-04-02T18:57:29.806Z,98925.66
2023-04-02T19:03:43.865Z,98928.21
2023-04-02T19:09:48.355Z,98936.02
2023-04-02T19:15:03.670Z,98942.46
2023-04-02T19:20:29.396Z,98936.86
2023-04-02T19:26:00.142Z,98938.73
2023-04-02T19:32:11.654Z,98943.65
2023-04-02T19:38:33.176Z,98952.30
2023-04-02T19:43:55.504Z,98958.24
2023-04-02T19:49:30.482Z,98960.27
2023-04-02T19:54:59.644Z,98963.83
2023-04-02T20:00:33.074Z,98966.91
2023-04-02T20:06:05.281Z,98972.86
2023-04-02T20:11:14.971Z,98972.83
2023-04-02T20:16:39.741Z,98971.48
2023-04-02T20:22:14.817Z,98976.05
2023-04-02T20:27:42.336Z,98983.33
2023-04-02T20:34:01.658Z,98984.87
2023-04-02T20:40:34.789Z,98998.27
2023-04-02T20:45:43.807Z,98998.59
2023-04-02T20:50:47.644Z,99003.67
2023-04-02T20:56:42.776Z,99003.17
2023-04-02T21:08:58.754Z,99016.44
2023-04-02T21:14:11.385Z,99022.05
2023-04-02T21:19:35.098Z,99017.95
2023-04-02T21:24:47.373Z,99020.84
2023-04-02T21:30:17.739Z,99023.57
2023-04-02T21:36:29.649Z,99026.14
2023-04-02T21:43:46.576Z,99038.17
2023-04-02T21:51:03.521Z,99049.19
2023-04-02T21:57:49.380Z,99050.02
2023-04-02T22:04:38.587Z,99058.34
2023-04-02T22:55:22.054Z,99091.71
2023-04-02T23:28:16.478Z,99111.31
2023-04-02T23:35:19.472Z,99121.13
2023-04-02T23:42:27.184Z,99124.88
2023-04-02T23:49:53.193Z,99129.20
2023-04-02T23:56:59.848Z,99130.79
